sensor_id;sensor_type;location;lat;lon;timestamp;temperature;humidity
1800;DHT22;919;48.274;12.292;2023-02-18T00:01:21;11.50;99.90
1800;DHT22;919;48.274;12.292;2023-02-18T00:03:49;11.40;99.90
1800;DHT22;919;48.274;12.292;2023-02-18T00:06:18;11.50;99.90
1800;DHT22;919;48.274;12.292;2023-02-18T00:08:45;11.50;99.90
1800;DHT22;919;48.274;12.292;2023-02-18T00:11:13;11.60;99.90
1800;DHT22;919;48.274;12.292;2023-02-18T00:13:41;11.50;99.90
1800;DHT22;919;48.274;12.292;2023-02-18T00:16:11;11.50;99.90
1800;DHT22;919;48.274;12.292;2023-02-18T00:18:38;11.40;99.90
1800;DHT22;919;48.274;12.292;2023-02-18T00:21:06;11.40;99.90
1800;DHT22;919;48.274;12.292;2023-02-18T00:23:33;11.40;99.90
1800;DHT22;919;48.274;12.292;2023-02-18T00:26:01;11.50;99.90
1800;DHT22;919;48.274;12.292;2023-02-18T00:28:29;11.50;99.90
1800;DHT22;919;48.274;12.292;2023-02-18T00:30:57;11.50;99.90
1800;DHT22;919;48.274;12.292;2023-02-18T00:33:24;11.50;99.90
1800;DHT22;919;48.274;12.292;2023-02-18T00:35:51;11.40;99.90
1800;DHT22;919;48.274;12.292;2023-02-18T00:38:18;11.30;99.90
1800;DHT22;919;48.274;12.292;2023-02-18T00:40:44;11.40;99.90
1800;DHT22;919;48.274;12.292;2023-02-18T00:43:12;11.30;99.90
1800;DHT22;919;48.274;12.292;2023-02-18T00:45:39;11.30;99.90
1800;DHT22;919;48.274;12.292;2023-02-18T00:48:07;11.40;99.90
1800;DHT22;919;48.274;12.292;2023-02-18T00:50:34;11.40;99.90
1800;DHT22;919;48.274;12.292;2023-02-18T00:53:00;11.30;99.90
1800;DHT22;919;48.274;12.292;2023-02-18T00:55:27;11.20;99.90
1800;DHT22;919;48.274;12.292;2023-02-18T00:57:54;11.30;99.90
1800;DHT22;919;48.274;12.292;2023-02-18T01:00:21;11.30;99.90
1800;DHT22;919;48.274;12.292;2023-02-18T01:02:49;11.20;99.90
1800;DHT22;919;48.274;12.292;2023-02-18T01:05:20;11.20;99.90
1800;DHT22;919;48.274;12.292;2023-02-18T01:07:47;11.30;99.90
1800;DHT22;919;48.274;12.292;2023-02-18T01:10:13;11.30;99.90
1800;DHT22;919;48.274;12.292;2023-02-18T01:12:40;11.20;99.90
1800;DHT22;919;48.274;12.292;2023-02-18T01:15:08;11.20;99.90
1800;DHT22;919;48.274;12.292;2023-02-18T01:17:35;11.20;99.90
1800;DHT22;919;48.274;12.292;2023-02-18T01:20:02;11.20;99.90
1800;DHT22;919;48.274;12.292;2023-02-18T01:22:30;11.20;99.90
1800;DHT22;919;48.274;12.292;2023-02-18T01:24:57;11.20;99.90
1800;DHT22;919;48.274;12.292;2023-02-18T01:27:23;11.20;99.90
1800;DHT22;919;48.274;12.292;2023-02-18T01:29:50;11.10;99.90
1800;DHT22;919;48.274;12.292;2023-02-18T01:32:17;11.10;99.90
1800;DHT22;919;48.274;12.292;2023-02-18T01:34:43;11.10;99.90
1800;DHT22;919;48.274;12.292;2023-02-18T01:37:11;11.10;99.90
1800;DHT22;919;48.274;12.292;2023-02-18T01:39:40;11.00;99.90
1800;DHT22;919;48.274;12.292;2023-02-18T01:42:17;11.00;99.90
1800;DHT22;919;48.274;12.292;2023-02-18T01:44:46;11.00;99.90
1800;DHT22;919;48.274;12.292;2023-02-18T01:47:14;11.00;99.90
1800;DHT22;919;48.274;12.292;2023-02-18T01:49:42;10.90;99.90
1800;DHT22;919;48.274;12.292;2023-02-18T01:52:12;10.90;99.90
1800;DHT22;919;48.274;12.292;2023-02-18T01:54:44;10.90;99.90
1800;DHT22;919;48.274;12.292;2023-02-18T01:57:13;11.00;99.90
1800;DHT22;919;48.274;12.292;2023-02-18T01:59:44;11.00;99.90
1800;DHT22;919;48.274;12.292;2023-02-18T02:02:14;11.00;99.90
1800;DHT22;919;48.274;12.292;2023-02-18T02:04:42;11.00;99.90
1800;DHT22;919;48.274;12.292;2023-02-18T02:07:09;10.90;99.90
1800;DHT22;919;48.274;12.292;2023-02-18T02:09:37;11.00;99.90
1800;DHT22;919;48.274;12.292;2023-02-18T02:12:27;10.90;99.90
1800;DHT22;919;48.274;12.292;2023-02-18T02:15:11;10.90;99.90
1800;DHT22;919;48.274;12.292;2023-02-18T02:17:48;10.90;99.90
1800;DHT22;919;48.274;12.292;2023-02-18T02:23:33;10.90;99.90
1800;DHT22;919;48.274;12.292;2023-02-18T02:26:41;11.00;99.90
1800;DHT22;919;48.274;12.292;2023-02-18T02:32:41;11.00;99.90
1800;DHT22;919;48.274;12.292;2023-02-18T02:35:14;11.00;99.90
1800;DHT22;919;48.274;12.292;2023-02-18T02:37:49;11.00;99.90
1800;DHT22;919;48.274;12.292;2023-02-18T02:40:23;11.00;99.90
1800;DHT22;919;48.274;12.292;2023-02-18T02:43:02;11.00;99.90
1800;DHT22;919;48.274;12.292;2023-02-18T02:45:37;11.00;99.90
1800;DHT22;919;48.274;12.292;2023-02-18T02:48:14;11.10;99.90
1800;DHT22;919;48.274;12.292;2023-02-18T02:50:47;11.10;99.90
1800;DHT22;919;48.274;12.292;2023-02-18T02:53:22;11.10;99.90
1800;DHT22;919;48.274;12.292;2023-02-18T02:55:49;11.10;99.90
1800;DHT22;919;48.274;12.292;2023-02-18T02:58:17;11.10;99.90
1800;DHT22;919;48.274;12.292;2023-02-18T03:00:56;11.10;99.90
1800;DHT22;919;48.274;12.292;2023-02-18T03:03:44;11.10;99.90
1800;DHT22;919;48.274;12.292;2023-02-18T03:06:29;11.10;99.90
1800;DHT22;919;48.274;12.292;2023-02-18T03:09:06;11.10;99.90
1800;DHT22;919;48.274;12.292;2023-02-18T03:11:42;11.00;99.90
1800;DHT22;919;48.274;12.292;2023-02-18T03:14:14;11.00;99.90
1800;DHT22;919;48.274;12.292;2023-02-18T03:16:45;11.10;99.90
1800;DHT22;919;48.274;12.292;2023-02-18T03:19:19;11.10;99.90
1800;DHT22;919;48.274;12.292;2023-02-18T03:21:52;11.10;99.90
1800;DHT22;919;48.274;12.292;2023-02-18T03:24:25;11.10;99.90
1800;DHT22;919;48.274;12.292;2023-02-18T03:26:56;11.10;99.90
1800;DHT22;919;48.274;12.292;2023-02-18T03:29:24;11.10;99.90
1800;DHT22;919;48.274;12.292;2023-02-18T03:31:55;11.00;99.90
1800;DHT22;919;48.274;12.292;2023-02-18T03:34:25;11.00;99.90
1800;DHT22;919;48.274;12.292;2023-02-18T03:36:55;11.00;99.90
1800;DHT22;919;48.274;12.292;2023-02-18T03:39:25;11.00;99.90
1800;DHT22;919;48.274;12.292;2023-02-18T03:41:53;11.00;99.90
1800;DHT22;919;48.274;12.292;2023-02-18T03:44:20;11.00;99.90
1800;DHT22;919;48.274;12.292;2023-02-18T03:46:46;10.90;99.90
1800;DHT22;919;48.274;12.292;2023-02-18T03:49:14;11.00;99.90
1800;DHT22;919;48.274;12.292;2023-02-18T03:51:42;11.00;99.90
1800;DHT22;919;48.274;12.292;2023-02-18T03:54:10;11.00;99.90
1800;DHT22;919;48.274;12.292;2023-02-18T03:56:39;11.00;99.90
1800;DHT22;919;48.274;12.292;2023-02-18T03:59:07;11.00;99.90
1800;DHT22;919;48.274;12.292;2023-02-18T04:01:33;11.00;99.90
1800;DHT22;919;48.274;12.292;2023-02-18T04:04:00;11.00;99.90
1800;DHT22;919;48.274;12.292;2023-02-18T04:06:28;10.90;99.90
1800;DHT22;919;48.274;12.292;2023-02-18T04:08:54;10.80;99.90
1800;DHT22;919;48.274;12.292;2023-02-18T04:11:23;10.80;99.90
1800;DHT22;919;48.274;12.292;2023-02-18T04:13:49;10.80;99.90
1800;DHT22;919;48.274;12.292;2023-02-18T04:16:16;10.80;99.90
1800;DHT22;919;48.274;12.292;2023-02-18T04:18:43;10.90;99.90
1800;DHT22;919;48.274;12.292;2023-02-18T04:21:10;10.80;99.90
1800;DHT22;919;48.274;12.292;2023-02-18T04:23:36;10.80;99.90
1800;DHT22;919;48.274;12.292;2023-02-18T04:26:03;10.80;99.90
1800;DHT22;919;48.274;12.292;2023-02-18T04:28:31;10.70;99.90
1800;DHT22;919;48.274;12.292;2023-02-18T04:30:58;10.70;99.90
1800;DHT22;919;48.274;12.292;2023-02-18T04:33:25;10.70;99.90
1800;DHT22;919;48.274;12.292;2023-02-18T04:35:51;10.80;99.90
1800;DHT22;919;48.274;12.292;2023-02-18T04:38:18;10.90;99.90
1800;DHT22;919;48.274;12.292;2023-02-18T04:40:45;10.90;99.90
1800;DHT22;919;48.274;12.292;2023-02-18T04:43:12;10.90;99.90
1800;DHT22;919;48.274;12.292;2023-02-18T04:45:40;10.80;99.90
1800;DHT22;919;48.274;12.292;2023-02-18T04:48:06;10.80;99.90
1800;DHT22;919;48.274;12.292;2023-02-18T04:50:33;10.80;99.90
1800;DHT22;919;48.274;12.292;2023-02-18T04:53:00;10.80;99.90
1800;DHT22;919;48.274;12.292;2023-02-18T04:55:27;10.80;99.90
1800;DHT22;919;48.274;12.292;2023-02-18T04:57:54;10.80;99.90
1800;DHT22;919;48.274;12.292;2023-02-18T05:00:20;10.80;99.90
1800;DHT22;919;48.274;12.292;2023-02-18T05:02:48;10.80;99.90
1800;DHT22;919;48.274;12.292;2023-02-18T05:05:15;10.70;99.90
1800;DHT22;919;48.274;12.292;2023-02-18T05:07:42;10.70;99.90
1800;DHT22;919;48.274;12.292;2023-02-18T05:10:09;10.60;99.90
1800;DHT22;919;48.274;12.292;2023-02-18T05:12:36;10.60;99.90
1800;DHT22;919;48.274;12.292;2023-02-18T05:15:03;10.60;99.90
1800;DHT22;919;48.274;12.292;2023-02-18T05:17:30;10.60;99.90
1800;DHT22;919;48.274;12.292;2023-02-18T05:19:58;10.60;99.90
1800;DHT22;919;48.274;12.292;2023-02-18T05:22:25;10.50;99.90
1800;DHT22;919;48.274;12.292;2023-02-18T05:24:51;10.50;99.90
1800;DHT22;919;48.274;12.292;2023-02-18T05:27:18;10.40;99.90
1800;DHT22;919;48.274;12.292;2023-02-18T05:29:45;10.40;99.90
1800;DHT22;919;48.274;12.292;2023-02-18T05:32:12;10.40;99.90
1800;DHT22;919;48.274;12.292;2023-02-18T05:34:38;10.40;99.90
1800;DHT22;919;48.274;12.292;2023-02-18T05:37:06;10.30;99.90
1800;DHT22;919;48.274;12.292;2023-02-18T05:39:33;10.40;99.90
1800;DHT22;919;48.274;12.292;2023-02-18T05:42:00;10.40;99.90
1800;DHT22;919;48.274;12.292;2023-02-18T05:44:26;10.30;99.90
1800;DHT22;919;48.274;12.292;2023-02-18T05:46:57;10.30;99.90
1800;DHT22;919;48.274;12.292;2023-02-18T05:49:24;10.40;99.90
1800;DHT22;919;48.274;12.292;2023-02-18T05:51:50;10.40;99.90
1800;DHT22;919;48.274;12.292;2023-02-18T05:54:18;10.40;99.90
1800;DHT22;919;48.274;12.292;2023-02-18T05:56:45;10.40;99.90
1800;DHT22;919;48.274;12.292;2023-02-18T05:59:13;10.50;99.90
1800;DHT22;919;48.274;12.292;2023-02-18T06:01:39;10.50;99.90
1800;DHT22;919;48.274;12.292;2023-02-18T06:04:06;10.50;99.90
1800;DHT22;919;48.274;12.292;2023-02-18T06:06:33;10.50;99.90
1800;DHT22;919;48.274;12.292;2023-02-18T06:09:00;10.40;99.90
1800;DHT22;919;48.274;12.292;2023-02-18T06:11:28;10.40;99.90
1800;DHT22;919;48.274;12.292;2023-02-18T06:13:56;10.40;99.90
1800;DHT22;919;48.274;12.292;2023-02-18T06:16:24;10.40;99.90
1800;DHT22;919;48.274;12.292;2023-02-18T06:18:50;10.30;99.90
1800;DHT22;919;48.274;12.292;2023-02-18T06:21:17;10.20;99.90
1800;DHT22;919;48.274;12.292;2023-02-18T06:23:44;10.20;99.90
1800;DHT22;919;48.274;12.292;2023-02-18T06:26:11;10.20;99.90
1800;DHT22;919;48.274;12.292;2023-02-18T06:28:39;10.20;99.90
1800;DHT22;919;48.274;12.292;2023-02-18T06:31:06;10.30;99.90
1800;DHT22;919;48.274;12.292;2023-02-18T06:33:32;10.40;99.90
1800;DHT22;919;48.274;12.292;2023-02-18T06:36:01;10.50;99.90
1800;DHT22;919;48.274;12.292;2023-02-18T06:38:31;10.50;99.90
1800;DHT22;919;48.274;12.292;2023-02-18T06:40:58;10.50;99.90
1800;DHT22;919;48.274;12.292;2023-02-18T06:43:24;10.60;99.90
1800;DHT22;919;48.274;12.292;2023-02-18T06:45:52;10.60;99.90
1800;DHT22;919;48.274;12.292;2023-02-18T06:48:19;10.70;99.90
1800;DHT22;919;48.274;12.292;2023-02-18T06:50:47;10.70;99.90
1800;DHT22;919;48.274;12.292;2023-02-18T06:53:14;10.60;99.90
1800;DHT22;919;48.274;12.292;2023-02-18T06:55:42;10.70;99.90
1800;DHT22;919;48.274;12.292;2023-02-18T06:58:09;10.70;99.90
1800;DHT22;919;48.274;12.292;2023-02-18T07:00:36;10.70;99.90
1800;DHT22;919;48.274;12.292;2023-02-18T07:03:04;10.70;99.90
1800;DHT22;919;48.274;12.292;2023-02-18T07:05:31;10.80;99.90
1800;DHT22;919;48.274;12.292;2023-02-18T07:07:58;10.80;99.90
1800;DHT22;919;48.274;12.292;2023-02-18T07:10:25;10.80;99.90
1800;DHT22;919;48.274;12.292;2023-02-18T07:12:51;10.80;99.90
1800;DHT22;919;48.274;12.292;2023-02-18T07:15:18;10.80;99.90
1800;DHT22;919;48.274;12.292;2023-02-18T07:17:48;10.90;99.90
1800;DHT22;919;48.274;12.292;2023-02-18T07:20:17;10.90;99.90
1800;DHT22;919;48.274;12.292;2023-02-18T07:22:43;10.90;99.90
1800;DHT22;919;48.274;12.292;2023-02-18T07:25:11;11.00;99.90
1800;DHT22;919;48.274;12.292;2023-02-18T07:27:37;11.00;99.90
1800;DHT22;919;48.274;12.292;2023-02-18T07:30:05;11.00;99.90
1800;DHT22;919;48.274;12.292;2023-02-18T07:32:32;11.00;99.90
1800;DHT22;919;48.274;12.292;2023-02-18T07:34:59;11.10;99.90
1800;DHT22;919;48.274;12.292;2023-02-18T07:37:27;11.00;99.90
1800;DHT22;919;48.274;12.292;2023-02-18T07:39:54;11.10;99.90
1800;DHT22;919;48.274;12.292;2023-02-18T07:42:21;11.10;99.90
1800;DHT22;919;48.274;12.292;2023-02-18T07:44:47;11.20;99.90
1800;DHT22;919;48.274;12.292;2023-02-18T07:47:15;11.20;99.90
1800;DHT22;919;48.274;12.292;2023-02-18T07:49:44;11.30;99.90
1800;DHT22;919;48.274;12.292;2023-02-18T07:52:11;11.40;99.90
1800;DHT22;919;48.274;12.292;2023-02-18T07:54:39;11.50;99.90
1800;DHT22;919;48.274;12.292;2023-02-18T07:57:06;11.60;99.90
1800;DHT22;919;48.274;12.292;2023-02-18T07:59:33;11.60;99.90
1800;DHT22;919;48.274;12.292;2023-02-18T08:01:59;11.60;99.90
1800;DHT22;919;48.274;12.292;2023-02-18T08:04:26;11.60;99.90
1800;DHT22;919;48.274;12.292;2023-02-18T08:06:53;11.50;99.90
1800;DHT22;919;48.274;12.292;2023-02-18T08:09:19;11.50;99.90
1800;DHT22;919;48.274;12.292;2023-02-18T08:11:47;11.40;99.90
1800;DHT22;919;48.274;12.292;2023-02-18T08:14:14;11.40;99.90
1800;DHT22;919;48.274;12.292;2023-02-18T08:16:41;11.40;99.90
1800;DHT22;919;48.274;12.292;2023-02-18T08:19:08;11.50;99.90
1800;DHT22;919;48.274;12.292;2023-02-18T08:21:35;11.60;99.90
1800;DHT22;919;48.274;12.292;2023-02-18T08:24:02;11.70;99.90
1800;DHT22;919;48.274;12.292;2023-02-18T08:26:28;11.70;99.90
1800;DHT22;919;48.274;12.292;2023-02-18T08:28:56;11.80;99.90
1800;DHT22;919;48.274;12.292;2023-02-18T08:31:25;11.90;99.90
1800;DHT22;919;48.274;12.292;2023-02-18T08:33:52;12.00;99.90
1800;DHT22;919;48.274;12.292;2023-02-18T08:36:20;12.10;99.90
1800;DHT22;919;48.274;12.292;2023-02-18T08:38:46;12.00;99.90
1800;DHT22;919;48.274;12.292;2023-02-18T08:41:14;12.00;99.90
1800;DHT22;919;48.274;12.292;2023-02-18T08:43:43;12.20;99.90
1800;DHT22;919;48.274;12.292;2023-02-18T08:46:12;12.20;99.90
1800;DHT22;919;48.274;12.292;2023-02-18T08:48:38;12.40;99.90
1800;DHT22;919;48.274;12.292;2023-02-18T08:51:14;12.50;99.90
1800;DHT22;919;48.274;12.292;2023-02-18T08:53:41;12.60;99.90
1800;DHT22;919;48.274;12.292;2023-02-18T08:56:08;12.60;99.90
1800;DHT22;919;48.274;12.292;2023-02-18T08:58:36;12.60;99.90
1800;DHT22;919;48.274;12.292;2023-02-18T09:01:03;12.70;99.90
1800;DHT22;919;48.274;12.292;2023-02-18T09:03:31;12.70;99.90
1800;DHT22;919;48.274;12.292;2023-02-18T09:05:58;12.70;99.90
1800;DHT22;919;48.274;12.292;2023-02-18T09:08:25;12.70;99.90
1800;DHT22;919;48.274;12.292;2023-02-18T09:10:54;12.70;99.90
1800;DHT22;919;48.274;12.292;2023-02-18T09:13:21;12.70;99.90
1800;DHT22;919;48.274;12.292;2023-02-18T09:15:55;12.90;99.90
1800;DHT22;919;48.274;12.292;2023-02-18T09:18:22;13.10;99.90
1800;DHT22;919;48.274;12.292;2023-02-18T09:20:50;13.10;99.90
1800;DHT22;919;48.274;12.292;2023-02-18T09:23:17;13.00;99.90
1800;DHT22;919;48.274;12.292;2023-02-18T09:25:45;13.00;99.90
1800;DHT22;919;48.274;12.292;2023-02-18T09:28:12;13.10;99.90
1800;DHT22;919;48.274;12.292;2023-02-18T09:30:39;13.20;99.90
1800;DHT22;919;48.274;12.292;2023-02-18T09:33:06;13.30;99.90
1800;DHT22;919;48.274;12.292;2023-02-18T09:35:32;13.10;99.90
1800;DHT22;919;48.274;12.292;2023-02-18T09:38:00;13.10;99.90
1800;DHT22;919;48.274;12.292;2023-02-18T09:40:31;13.20;99.90
1800;DHT22;919;48.274;12.292;2023-02-18T09:42:58;13.20;99.90
1800;DHT22;919;48.274;12.292;2023-02-18T09:45:26;13.30;99.90
1800;DHT22;919;48.274;12.292;2023-02-18T09:47:54;13.40;99.90
1800;DHT22;919;48.274;12.292;2023-02-18T09:50:23;13.50;99.90
1800;DHT22;919;48.274;12.292;2023-02-18T09:52:51;13.50;99.90
1800;DHT22;919;48.274;12.292;2023-02-18T09:55:22;13.30;99.90
1800;DHT22;919;48.274;12.292;2023-02-18T09:57:52;13.10;99.90
1800;DHT22;919;48.274;12.292;2023-02-18T10:00:24;13.20;99.90
1800;DHT22;919;48.274;12.292;2023-02-18T10:02:54;13.40;99.90
1800;DHT22;919;48.274;12.292;2023-02-18T10:05:23;13.50;99.90
1800;DHT22;919;48.274;12.292;2023-02-18T10:07:53;13.50;99.90
1800;DHT22;919;48.274;12.292;2023-02-18T10:10:31;13.70;99.90
1800;DHT22;919;48.274;12.292;2023-02-18T10:13:00;13.80;99.90
1800;DHT22;919;48.274;12.292;2023-02-18T10:15:29;14.00;99.90
1800;DHT22;919;48.274;12.292;2023-02-18T10:17:58;14.00;99.90
1800;DHT22;919;48.274;12.292;2023-02-18T10:20:27;13.50;99.90
1800;DHT22;919;48.274;12.292;2023-02-18T10:22:57;13.40;99.90
1800;DHT22;919;48.274;12.292;2023-02-18T10:25:26;13.50;99.90
1800;DHT22;919;48.274;12.292;2023-02-18T10:27:53;13.50;99.90
1800;DHT22;919;48.274;12.292;2023-02-18T10:30:24;13.50;99.90
1800;DHT22;919;48.274;12.292;2023-02-18T10:32:55;13.50;99.90
1800;DHT22;919;48.274;12.292;2023-02-18T10:35:28;13.60;99.90
1800;DHT22;919;48.274;12.292;2023-02-18T10:38:02;13.80;99.90
1800;DHT22;919;48.274;12.292;2023-02-18T10:40:40;14.00;99.90
1800;DHT22;919;48.274;12.292;2023-02-18T10:43:13;14.50;99.90
1800;DHT22;919;48.274;12.292;2023-02-18T10:45:47;14.80;99.90
1800;DHT22;919;48.274;12.292;2023-02-18T10:48:27;15.00;99.90
1800;DHT22;919;48.274;12.292;2023-02-18T10:50:59;15.00;99.90
1800;DHT22;919;48.274;12.292;2023-02-18T10:53:32;14.90;99.90
1800;DHT22;919;48.274;12.292;2023-02-18T10:56:01;14.60;99.90
1800;DHT22;919;48.274;12.292;2023-02-18T10:58:33;14.50;99.90
1800;DHT22;919;48.274;12.292;2023-02-18T11:01:02;14.40;99.90
1800;DHT22;919;48.274;12.292;2023-02-18T11:03:39;14.40;99.90
1800;DHT22;919;48.274;12.292;2023-02-18T11:06:15;14.20;99.90
1800;DHT22;919;48.274;12.292;2023-02-18T11:08:44;14.30;99.90
1800;DHT22;919;48.274;12.292;2023-02-18T11:11:15;14.20;99.90
1800;DHT22;919;48.274;12.292;2023-02-18T11:13:44;14.40;99.90
1800;DHT22;919;48.274;12.292;2023-02-18T11:16:11;14.40;99.90
1800;DHT22;919;48.274;12.292;2023-02-18T11:18:39;14.40;99.90
1800;DHT22;919;48.274;12.292;2023-02-18T11:21:19;14.30;99.90
1800;DHT22;919;48.274;12.292;2023-02-18T11:23:50;14.30;99.90
1800;DHT22;919;48.274;12.292;2023-02-18T11:26:23;14.30;99.90
1800;DHT22;919;48.274;12.292;2023-02-18T11:28:56;14.40;99.90
1800;DHT22;919;48.274;12.292;2023-02-18T11:31:28;14.40;99.90
1800;DHT22;919;48.274;12.292;2023-02-18T11:33:58;14.50;99.90
1800;DHT22;919;48.274;12.292;2023-02-18T11:36:29;14.60;99.90
1800;DHT22;919;48.274;12.292;2023-02-18T11:38:58;14.80;99.90
1800;DHT22;919;48.274;12.292;2023-02-18T11:41:34;14.90;99.90
1800;DHT22;919;48.274;12.292;2023-02-18T11:44:04;15.10;99.90
1800;DHT22;919;48.274;12.292;2023-02-18T11:46:31;15.00;99.90
1800;DHT22;919;48.274;12.292;2023-02-18T11:49:21;15.00;99.90
1800;DHT22;919;48.274;12.292;2023-02-18T11:51:49;15.10;99.90
1800;DHT22;919;48.274;12.292;2023-02-18T11:54:23;15.30;99.90
1800;DHT22;919;48.274;12.292;2023-02-18T11:56:56;15.40;99.90
1800;DHT22;919;48.274;12.292;2023-02-18T11:59:24;15.40;99.90
1800;DHT22;919;48.274;12.292;2023-02-18T12:01:54;15.40;99.90
1800;DHT22;919;48.274;12.292;2023-02-18T12:04:25;15.30;99.90
1800;DHT22;919;48.274;12.292;2023-02-18T12:07:11;15.20;99.90
1800;DHT22;919;48.274;12.292;2023-02-18T12:09:44;15.30;99.90
1800;DHT22;919;48.274;12.292;2023-02-18T12:12:16;15.40;99.90
1800;DHT22;919;48.274;12.292;2023-02-18T12:14:45;15.50;99.90
1800;DHT22;919;48.274;12.292;2023-02-18T12:17:34;15.70;99.90
1800;DHT22;919;48.274;12.292;2023-02-18T12:20:18;15.80;99.90
1800;DHT22;919;48.274;12.292;2023-02-18T12:22:57;15.70;99.90
1800;DHT22;919;48.274;12.292;2023-02-18T12:25:37;15.70;99.90
1800;DHT22;919;48.274;12.292;2023-02-18T12:28:22;15.70;99.90
1800;DHT22;919;48.274;12.292;2023-02-18T12:31:08;15.80;99.90
1800;DHT22;919;48.274;12.292;2023-02-18T12:33:47;16.00;99.90
1800;DHT22;919;48.274;12.292;2023-02-18T12:36:24;16.00;99.90
1800;DHT22;919;48.274;12.292;2023-02-18T12:39:02;16.00;99.90
1800;DHT22;919;48.274;12.292;2023-02-18T12:44:38;16.10;99.90
1800;DHT22;919;48.274;12.292;2023-02-18T12:47:33;15.90;99.90
1800;DHT22;919;48.274;12.292;2023-02-18T12:50:27;15.80;99.90
1800;DHT22;919;48.274;12.292;2023-02-18T12:53:09;16.00;99.90
1800;DHT22;919;48.274;12.292;2023-02-18T12:55:50;16.00;99.90
1800;DHT22;919;48.274;12.292;2023-02-18T12:58:30;15.90;99.90
1800;DHT22;919;48.274;12.292;2023-02-18T13:01:07;16.00;99.90
1800;DHT22;919;48.274;12.292;2023-02-18T13:04:00;16.10;99.90
1800;DHT22;919;48.274;12.292;2023-02-18T13:06:41;16.10;99.90
1800;DHT22;919;48.274;12.292;2023-02-18T13:09:20;16.20;99.90
1800;DHT22;919;48.274;12.292;2023-02-18T13:11:53;16.10;99.90
1800;DHT22;919;48.274;12.292;2023-02-18T13:14:25;16.20;99.90
1800;DHT22;919;48.274;12.292;2023-02-18T13:16:56;16.10;99.90
1800;DHT22;919;48.274;12.292;2023-02-18T13:19:26;15.70;99.90
1800;DHT22;919;48.274;12.292;2023-02-18T13:21:57;15.60;99.90
1800;DHT22;919;48.274;12.292;2023-02-18T13:24:29;15.40;99.90
1800;DHT22;919;48.274;12.292;2023-02-18T13:27:02;15.40;99.90
1800;DHT22;919;48.274;12.292;2023-02-18T13:29:34;15.40;99.90
1800;DHT22;919;48.274;12.292;2023-02-18T13:32:11;15.20;99.90
1800;DHT22;919;48.274;12.292;2023-02-18T13:34:47;15.30;99.90
1800;DHT22;919;48.274;12.292;2023-02-18T13:37:21;15.40;99.90
1800;DHT22;919;48.274;12.292;2023-02-18T13:39:50;15.40;99.90
1800;DHT22;919;48.274;12.292;2023-02-18T13:42:32;15.50;99.90
1800;DHT22;919;48.274;12.292;2023-02-18T13:45:22;15.40;99.90
1800;DHT22;919;48.274;12.292;2023-02-18T13:47:51;15.30;99.90
1800;DHT22;919;48.274;12.292;2023-02-18T13:50:26;15.40;99.90
1800;DHT22;919;48.274;12.292;2023-02-18T13:53:01;15.40;99.90
1800;DHT22;919;48.274;12.292;2023-02-18T13:55:40;15.60;99.90
1800;DHT22;919;48.274;12.292;2023-02-18T13:58:13;15.30;99.90
1800;DHT22;919;48.274;12.292;2023-02-18T14:00:47;15.00;99.90
1800;DHT22;919;48.274;12.292;2023-02-18T14:03:50;14.70;99.90
1800;DHT22;919;48.274;12.292;2023-02-18T14:06:19;14.50;99.90
1800;DHT22;919;48.274;12.292;2023-02-18T14:08:46;14.40;99.90
1800;DHT22;919;48.274;12.292;2023-02-18T14:11:37;14.40;99.90
1800;DHT22;919;48.274;12.292;2023-02-18T14:17:36;14.30;99.90
1800;DHT22;919;48.274;12.292;2023-02-18T14:20:28;14.10;99.90
1800;DHT22;919;48.274;12.292;2023-02-18T14:22:56;14.10;99.90
1800;DHT22;919;48.274;12.292;2023-02-18T14:25:33;14.00;99.90
1800;DHT22;919;48.274;12.292;2023-02-18T14:28:03;13.90;99.90
1800;DHT22;919;48.274;12.292;2023-02-18T14:30:41;13.90;99.90
1800;DHT22;919;48.274;12.292;2023-02-18T14:33:13;13.80;99.90
1800;DHT22;919;48.274;12.292;2023-02-18T14:35:45;13.70;99.90
1800;DHT22;919;48.274;12.292;2023-02-18T14:38:28;13.60;99.90
1800;DHT22;919;48.274;12.292;2023-02-18T14:41:18;13.50;99.90
1800;DHT22;919;48.274;12.292;2023-02-18T14:44:03;13.50;99.90
1800;DHT22;919;48.274;12.292;2023-02-18T14:46:39;13.50;99.90
1800;DHT22;919;48.274;12.292;2023-02-18T14:49:23;13.50;99.90
1800;DHT22;919;48.274;12.292;2023-02-18T14:51:54;13.50;99.90
1800;DHT22;919;48.274;12.292;2023-02-18T14:54:25;13.50;99.90
1800;DHT22;919;48.274;12.292;2023-02-18T14:56:55;13.50;99.90
1800;DHT22;919;48.274;12.292;2023-02-18T14:59:24;13.50;99.90
1800;DHT22;919;48.274;12.292;2023-02-18T15:01:53;13.50;99.90
1800;DHT22;919;48.274;12.292;2023-02-18T15:04:20;13.40;99.90
1800;DHT22;919;48.274;12.292;2023-02-18T15:06:58;13.40;99.90
1800;DHT22;919;48.274;12.292;2023-02-18T15:09:26;13.40;99.90
1800;DHT22;919;48.274;12.292;2023-02-18T15:11:56;13.40;99.90
1800;DHT22;919;48.274;12.292;2023-02-18T15:14:26;13.40;99.90
1800;DHT22;919;48.274;12.292;2023-02-18T15:16:55;13.40;99.90
1800;DHT22;919;48.274;12.292;2023-02-18T15:19:26;13.40;99.90
1800;DHT22;919;48.274;12.292;2023-02-18T15:21:55;13.40;99.90
1800;DHT22;919;48.274;12.292;2023-02-18T15:24:26;13.40;99.90
1800;DHT22;919;48.274;12.292;2023-02-18T15:26:58;13.40;99.90
1800;DHT22;919;48.274;12.292;2023-02-18T15:29:26;13.40;99.90
1800;DHT22;919;48.274;12.292;2023-02-18T15:31:55;13.30;99.90
1800;DHT22;919;48.274;12.292;2023-02-18T15:34:34;13.30;99.90
1800;DHT22;919;48.274;12.292;2023-02-18T15:37:02;13.20;99.90
1800;DHT22;919;48.274;12.292;2023-02-18T15:39:31;13.20;99.90
1800;DHT22;919;48.274;12.292;2023-02-18T15:42:00;13.10;99.90
1800;DHT22;919;48.274;12.292;2023-02-18T15:44:30;13.10;99.90
1800;DHT22;919;48.274;12.292;2023-02-18T15:46:59;13.00;99.90
1800;DHT22;919;48.274;12.292;2023-02-18T15:49:27;13.00;99.90
1800;DHT22;919;48.274;12.292;2023-02-18T15:51:56;13.00;99.90
1800;DHT22;919;48.274;12.292;2023-02-18T15:54:24;12.90;99.90
1800;DHT22;919;48.274;12.292;2023-02-18T15:56:54;12.80;99.90
1800;DHT22;919;48.274;12.292;2023-02-18T15:59:25;12.80;99.90
1800;DHT22;919;48.274;12.292;2023-02-18T16:01:53;12.70;99.90
1800;DHT22;919;48.274;12.292;2023-02-18T16:04:21;12.70;99.90
1800;DHT22;919;48.274;12.292;2023-02-18T16:06:49;12.70;99.90
1800;DHT22;919;48.274;12.292;2023-02-18T16:09:21;12.70;99.90
1800;DHT22;919;48.274;12.292;2023-02-18T16:11:52;12.70;99.90
1800;DHT22;919;48.274;12.292;2023-02-18T16:14:26;12.60;99.90
1800;DHT22;919;48.274;12.292;2023-02-18T16:17:06;12.60;99.90
1800;DHT22;919;48.274;12.292;2023-02-18T16:19:34;12.60;99.90
1800;DHT22;919;48.274;12.292;2023-02-18T16:22:05;12.50;99.90
1800;DHT22;919;48.274;12.292;2023-02-18T16:24:39;12.50;99.90
1800;DHT22;919;48.274;12.292;2023-02-18T16:27:14;12.50;99.90
1800;DHT22;919;48.274;12.292;2023-02-18T16:29:42;12.40;99.90
1800;DHT22;919;48.274;12.292;2023-02-18T16:32:09;12.40;99.90
1800;DHT22;919;48.274;12.292;2023-02-18T16:34:36;12.40;99.90
1800;DHT22;919;48.274;12.292;2023-02-18T16:37:03;12.50;99.90